Aviation Digital Data Service (ADDS)

Output produced by METARs form (0131 UTC 24 October 2019)
found at http://www.aviationweather.gov/metar/data/
 
METAR text: EFHK 240120Z 22007KT 9999 BKN023 10/07 Q1013 NOSIG
Conditions at: EFHK (HELSINKI/VANTAA , FI) observed 0120 UTC 24 October 2019
Temperature: 10.0°C (50°F)
Dewpoint: 7.0°C (45°F) [RH = 82%]
Pressure (altimeter): 29.91 inches Hg (1013.0 mb)
Winds: from the SW (220 degrees) at 8 MPH (7 knots; 3.6 m/s)
Visibility: 6 or more miles (10+ km)
Ceiling: 2300 feet AGL
Clouds: broken clouds at 2300 feet AGL
Weather: no significant weather observed at this time

METAR text: EFHK 240050Z 23009KT 9999 FEW015 BKN020 10/07 Q1013 NOSIG
Conditions at: EFHK (HELSINKI/VANTAA , FI) observed 0050 UTC 24 October 2019
Temperature: 10.0°C (50°F)
Dewpoint: 7.0°C (45°F) [RH = 82%]
Pressure (altimeter): 29.91 inches Hg (1013.0 mb)
Winds: from the SW (230 degrees) at 10 MPH (9 knots; 4.6 m/s)
Visibility: 6 or more miles (10+ km)
Ceiling: 2000 feet AGL
Clouds: few clouds at 1500 feet AGL
broken clouds at 2000 feet AGL
Weather: no significant weather observed at this time

METAR text: EFHK 240020Z 23008KT 9999 FEW013 BKN020 10/08 Q1013 NOSIG
Conditions at: EFHK (HELSINKI/VANTAA , FI) observed 0020 UTC 24 October 2019
Temperature: 10.0°C (50°F)
Dewpoint: 8.0°C (46°F) [RH = 87%]
Pressure (altimeter): 29.91 inches Hg (1013.0 mb)
Winds: from the SW (230 degrees) at 9 MPH (8 knots; 4.1 m/s)
Visibility: 6 or more miles (10+ km)
Ceiling: 2000 feet AGL
Clouds: few clouds at 1300 feet AGL
broken clouds at 2000 feet AGL
Weather: no significant weather observed at this time

METAR text: EFHK 232350Z 22007KT 9999 FEW013 BKN020 10/08 Q1013 NOSIG
Conditions at: EFHK (HELSINKI/VANTAA , FI) observed 2350 UTC 23 October 2019
Temperature: 10.0°C (50°F)
Dewpoint: 8.0°C (46°F) [RH = 87%]
Pressure (altimeter): 29.91 inches Hg (1013.0 mb)
Winds: from the SW (220 degrees) at 8 MPH (7 knots; 3.6 m/s)
Visibility: 6 or more miles (10+ km)
Ceiling: 2000 feet AGL
Clouds: few clouds at 1300 feet AGL
broken clouds at 2000 feet AGL
Weather: no significant weather observed at this time

METAR text: EFHK 232320Z 21007KT 9999 FEW013 BKN022 10/09 Q1013 NOSIG
Conditions at: EFHK (HELSINKI/VANTAA , FI) observed 2320 UTC 23 October 2019
Temperature: 10.0°C (50°F)
Dewpoint: 9.0°C (48°F) [RH = 93%]
Pressure (altimeter): 29.91 inches Hg (1013.0 mb)
Winds: from the SSW (210 degrees) at 8 MPH (7 knots; 3.6 m/s)
Visibility: 6 or more miles (10+ km)
Ceiling: 2200 feet AGL
Clouds: few clouds at 1300 feet AGL
broken clouds at 2200 feet AGL
Weather: no significant weather observed at this time

METAR text: EFHK 232250Z 21008KT 9999 FEW012 BKN022 10/09 Q1013 NOSIG
Conditions at: EFHK (HELSINKI/VANTAA , FI) observed 2250 UTC 23 October 2019
Temperature: 10.0°C (50°F)
Dewpoint: 9.0°C (48°F) [RH = 93%]
Pressure (altimeter): 29.91 inches Hg (1013.0 mb)
Winds: from the SSW (210 degrees) at 9 MPH (8 knots; 4.1 m/s)
Visibility: 6 or more miles (10+ km)
Ceiling: 2200 feet AGL
Clouds: few clouds at 1200 feet AGL
broken clouds at 2200 feet AGL
Weather: no significant weather observed at this time

METAR text: EFHK 232220Z 20007KT 9999 BKN022 10/09 Q1013 NOSIG
Conditions at: EFHK (HELSINKI/VANTAA , FI) observed 2220 UTC 23 October 2019
Temperature: 10.0°C (50°F)
Dewpoint: 9.0°C (48°F) [RH = 93%]
Pressure (altimeter): 29.91 inches Hg (1013.0 mb)
Winds: from the SSW (200 degrees) at 8 MPH (7 knots; 3.6 m/s)
Visibility: 6 or more miles (10+ km)
Ceiling: 2200 feet AGL
Clouds: broken clouds at 2200 feet AGL
Weather: no significant weather observed at this time

METAR text: EFHK 232150Z 20007KT 9999 FEW015 BKN021 10/09 Q1013 NOSIG
Conditions at: EFHK (HELSINKI/VANTAA , FI) observed 2150 UTC 23 October 2019
Temperature: 10.0°C (50°F)
Dewpoint: 9.0°C (48°F) [RH = 93%]
Pressure (altimeter): 29.91 inches Hg (1013.0 mb)
Winds: from the SSW (200 degrees) at 8 MPH (7 knots; 3.6 m/s)
Visibility: 6 or more miles (10+ km)
Ceiling: 2100 feet AGL
Clouds: few clouds at 1500 feet AGL
broken clouds at 2100 feet AGL
Weather: no significant weather observed at this time

METAR text: EFHK 232120Z 21006KT 9999 FEW015 BKN019 10/09 Q1013 NOSIG
Conditions at: EFHK (HELSINKI/VANTAA , FI) observed 2120 UTC 23 October 2019
Temperature: 10.0°C (50°F)
Dewpoint: 9.0°C (48°F) [RH = 93%]
Pressure (altimeter): 29.91 inches Hg (1013.0 mb)
Winds: from the SSW (210 degrees) at 7 MPH (6 knots; 3.1 m/s)
Visibility: 6 or more miles (10+ km)
Ceiling: 1900 feet AGL
Clouds: few clouds at 1500 feet AGL
broken clouds at 1900 feet AGL
Weather: no significant weather observed at this time

METAR text: EFHK 232050Z 22006KT 9999 FEW009 BKN016 10/09 Q1013 NOSIG
Conditions at: EFHK (HELSINKI/VANTAA , FI) observed 2050 UTC 23 October 2019
Temperature: 10.0°C (50°F)
Dewpoint: 9.0°C (48°F) [RH = 93%]
Pressure (altimeter): 29.91 inches Hg (1013.0 mb)
Winds: from the SW (220 degrees) at 7 MPH (6 knots; 3.1 m/s)
Visibility: 6 or more miles (10+ km)
Ceiling: 1600 feet AGL
Clouds: few clouds at 900 feet AGL
broken clouds at 1600 feet AGL
Weather: no significant weather observed at this time

METAR text: EFHK 232020Z 20005KT 9999 -DZ BKN009 BKN015 10/09 Q1013 TEMPO SCT009 BKN015
Conditions at: EFHK (HELSINKI/VANTAA , FI) observed 2020 UTC 23 October 2019
Temperature: 10.0°C (50°F)
Dewpoint: 9.0°C (48°F) [RH = 93%]
Pressure (altimeter): 29.91 inches Hg (1013.0 mb)
Winds: from the SSW (200 degrees) at 6 MPH (5 knots; 2.6 m/s)
Visibility: 6 or more miles (10+ km)
Ceiling: 900 feet AGL
Clouds: broken clouds at 900 feet AGL
broken clouds at 1500 feet AGL
Weather: -DZ  (light drizzle)

METAR text: EFHK 231950Z 20005KT 9999 FEW010 BKN019 10/09 Q1013 NOSIG
Conditions at: EFHK (HELSINKI/VANTAA , FI) observed 1950 UTC 23 October 2019
Temperature: 10.0°C (50°F)
Dewpoint: 9.0°C (48°F) [RH = 93%]
Pressure (altimeter): 29.91 inches Hg (1013.0 mb)
Winds: from the SSW (200 degrees) at 6 MPH (5 knots; 2.6 m/s)
Visibility: 6 or more miles (10+ km)
Ceiling: 1900 feet AGL
Clouds: few clouds at 1000 feet AGL
broken clouds at 1900 feet AGL
Weather: no significant weather observed at this time

METAR text: EFHK 231920Z 21005KT 9999 FEW015 BKN020 10/08 Q1013 NOSIG
Conditions at: EFHK (HELSINKI/VANTAA , FI) observed 1920 UTC 23 October 2019
Temperature: 10.0°C (50°F)
Dewpoint: 8.0°C (46°F) [RH = 87%]
Pressure (altimeter): 29.91 inches Hg (1013.0 mb)
Winds: from the SSW (210 degrees) at 6 MPH (5 knots; 2.6 m/s)
Visibility: 6 or more miles (10+ km)
Ceiling: 2000 feet AGL
Clouds: few clouds at 1500 feet AGL
broken clouds at 2000 feet AGL
Weather: no significant weather observed at this time

METAR text: EFHK 231850Z 21004KT 9999 FEW018 BKN020 09/08 Q1013 NOSIG
Conditions at: EFHK (HELSINKI/VANTAA , FI) observed 1850 UTC 23 October 2019
Temperature: 9.0°C (48°F)
Dewpoint: 8.0°C (46°F) [RH = 93%]
Pressure (altimeter): 29.91 inches Hg (1013.0 mb)
Winds: from the SSW (210 degrees) at 5 MPH (4 knots; 2.1 m/s)
Visibility: 6 or more miles (10+ km)
Ceiling: 2000 feet AGL
Clouds: few clouds at 1800 feet AGL
broken clouds at 2000 feet AGL
Weather: no significant weather observed at this time

METAR text: EFHK 231820Z 21006KT 9999 BKN019 09/08 Q1013 NOSIG
Conditions at: EFHK (HELSINKI/VANTAA , FI) observed 1820 UTC 23 October 2019
Temperature: 9.0°C (48°F)
Dewpoint: 8.0°C (46°F) [RH = 93%]
Pressure (altimeter): 29.91 inches Hg (1013.0 mb)
Winds: from the SSW (210 degrees) at 7 MPH (6 knots; 3.1 m/s)
Visibility: 6 or more miles (10+ km)
Ceiling: 1900 feet AGL
Clouds: broken clouds at 1900 feet AGL
Weather: no significant weather observed at this time

METAR text: EFHK 231750Z 21005KT 190V260 9999 BKN019 10/08 Q1013 NOSIG
Conditions at: EFHK (HELSINKI/VANTAA , FI) observed 1750 UTC 23 October 2019
Temperature: 10.0°C (50°F)
Dewpoint: 8.0°C (46°F) [RH = 87%]
Pressure (altimeter): 29.91 inches Hg (1013.0 mb)
Winds: from the SSW (210 degrees) at 6 MPH (5 knots; 2.6 m/s)
Visibility: 6 or more miles (10+ km)
Ceiling: 1900 feet AGL
Clouds: broken clouds at 1900 feet AGL
Weather: no significant weather observed at this time

METAR text: EFHK 231720Z 21006KT 9999 BKN018 09/08 Q1013 NOSIG
Conditions at: EFHK (HELSINKI/VANTAA , FI) observed 1720 UTC 23 October 2019
Temperature: 9.0°C (48°F)
Dewpoint: 8.0°C (46°F) [RH = 93%]
Pressure (altimeter): 29.91 inches Hg (1013.0 mb)
Winds: from the SSW (210 degrees) at 7 MPH (6 knots; 3.1 m/s)
Visibility: 6 or more miles (10+ km)
Ceiling: 1800 feet AGL
Clouds: broken clouds at 1800 feet AGL
Weather: no significant weather observed at this time

METAR text: EFHK 231650Z 21007KT 9999 FEW025 10/08 Q1013 NOSIG
Conditions at: EFHK (HELSINKI/VANTAA , FI) observed 1650 UTC 23 October 2019
Temperature: 10.0°C (50°F)
Dewpoint: 8.0°C (46°F) [RH = 87%]
Pressure (altimeter): 29.91 inches Hg (1013.0 mb)
Winds: from the SSW (210 degrees) at 8 MPH (7 knots; 3.6 m/s)
Visibility: 6 or more miles (10+ km)
Ceiling: at least 12,000 feet AGL
Clouds: few clouds at 2500 feet AGL
Weather: no significant weather observed at this time

METAR text: EFHK 231620Z 21007KT CAVOK 10/07 Q1013 NOSIG
Conditions at: EFHK (HELSINKI/VANTAA , FI) observed 1620 UTC 23 October 2019
Temperature: 10.0°C (50°F)
Dewpoint: 7.0°C (45°F) [RH = 82%]
Pressure (altimeter): 29.91 inches Hg (1013.0 mb)
Winds: from the SSW (210 degrees) at 8 MPH (7 knots; 3.6 m/s)
Visibility: 6 or more miles (10+ km)
Ceiling: ceiling and visibility are OK
Clouds: unknown
Weather: no significant weather observed at this time

METAR text: EFHK 231550Z 21008KT CAVOK 10/07 Q1013 NOSIG
Conditions at: EFHK (HELSINKI/VANTAA , FI) observed 1550 UTC 23 October 2019
Temperature: 10.0°C (50°F)
Dewpoint: 7.0°C (45°F) [RH = 82%]
Pressure (altimeter): 29.91 inches Hg (1013.0 mb)
Winds: from the SSW (210 degrees) at 9 MPH (8 knots; 4.1 m/s)
Visibility: 6 or more miles (10+ km)
Ceiling: ceiling and visibility are OK
Clouds: unknown
Weather: no significant weather observed at this time

METAR text: EFHK 231520Z 21007KT 9999 FEW015 10/07 Q1013 NOSIG
Conditions at: EFHK (HELSINKI/VANTAA , FI) observed 1520 UTC 23 October 2019
Temperature: 10.0°C (50°F)
Dewpoint: 7.0°C (45°F) [RH = 82%]
Pressure (altimeter): 29.91 inches Hg (1013.0 mb)
Winds: from the SSW (210 degrees) at 8 MPH (7 knots; 3.6 m/s)
Visibility: 6 or more miles (10+ km)
Ceiling: at least 12,000 feet AGL
Clouds: few clouds at 1500 feet AGL
Weather: no significant weather observed at this time

METAR text: EFHK 231450Z 21009KT 9999 FEW015 10/07 Q1013 NOSIG
Conditions at: EFHK (HELSINKI/VANTAA , FI) observed 1450 UTC 23 October 2019
Temperature: 10.0°C (50°F)
Dewpoint: 7.0°C (45°F) [RH = 82%]
Pressure (altimeter): 29.91 inches Hg (1013.0 mb)
Winds: from the SSW (210 degrees) at 10 MPH (9 knots; 4.6 m/s)
Visibility: 6 or more miles (10+ km)
Ceiling: at least 12,000 feet AGL
Clouds: few clouds at 1500 feet AGL
Weather: no significant weather observed at this time

METAR text: EFHK 231420Z 20009KT 9999 FEW020 11/07 Q1012 NOSIG
Conditions at: EFHK (HELSINKI/VANTAA , FI) observed 1420 UTC 23 October 2019
Temperature: 11.0°C (52°F)
Dewpoint: 7.0°C (45°F) [RH = 76%]
Pressure (altimeter): 29.88 inches Hg (1012.0 mb)
Winds: from the SSW (200 degrees) at 10 MPH (9 knots; 4.6 m/s)
Visibility: 6 or more miles (10+ km)
Ceiling: at least 12,000 feet AGL
Clouds: few clouds at 2000 feet AGL
Weather: no significant weather observed at this time

METAR text: EFHK 231350Z 21006KT 9999 FEW020 11/06 Q1013 NOSIG
Conditions at: EFHK (HELSINKI/VANTAA , FI) observed 1350 UTC 23 October 2019
Temperature: 11.0°C (52°F)
Dewpoint: 6.0°C (43°F) [RH = 71%]
Pressure (altimeter): 29.91 inches Hg (1013.0 mb)
Winds: from the SSW (210 degrees) at 7 MPH (6 knots; 3.1 m/s)
Visibility: 6 or more miles (10+ km)
Ceiling: at least 12,000 feet AGL
Clouds: few clouds at 2000 feet AGL
Weather: no significant weather observed at this time

METAR text: EFHK 231320Z 23005KT CAVOK 11/05 Q1012 NOSIG
Conditions at: EFHK (HELSINKI/VANTAA , FI) observed 1320 UTC 23 October 2019
Temperature: 11.0°C (52°F)
Dewpoint: 5.0°C (41°F) [RH = 66%]
Pressure (altimeter): 29.88 inches Hg (1012.0 mb)
Winds: from the SW (230 degrees) at 6 MPH (5 knots; 2.6 m/s)
Visibility: 6 or more miles (10+ km)
Ceiling: ceiling and visibility are OK
Clouds: unknown
Weather: no significant weather observed at this time

METAR text: EFHK 231250Z 24007KT CAVOK 11/04 Q1012 NOSIG
Conditions at: EFHK (HELSINKI/VANTAA , FI) observed 1250 UTC 23 October 2019
Temperature: 11.0°C (52°F)
Dewpoint: 4.0°C (39°F) [RH = 62%]
Pressure (altimeter): 29.88 inches Hg (1012.0 mb)
Winds: from the WSW (240 degrees) at 8 MPH (7 knots; 3.6 m/s)
Visibility: 6 or more miles (10+ km)
Ceiling: ceiling and visibility are OK
Clouds: unknown
Weather: no significant weather observed at this time

METAR text: EFHK 231220Z 23007KT CAVOK 11/05 Q1012 NOSIG
Conditions at: EFHK (HELSINKI/VANTAA , FI) observed 1220 UTC 23 October 2019
Temperature: 11.0°C (52°F)
Dewpoint: 5.0°C (41°F) [RH = 66%]
Pressure (altimeter): 29.88 inches Hg (1012.0 mb)
Winds: from the SW (230 degrees) at 8 MPH (7 knots; 3.6 m/s)
Visibility: 6 or more miles (10+ km)
Ceiling: ceiling and visibility are OK
Clouds: unknown
Weather: no significant weather observed at this time

METAR text: EFHK 231150Z 24010KT 9999 FEW020 11/04 Q1012 NOSIG
Conditions at: EFHK (HELSINKI/VANTAA , FI) observed 1150 UTC 23 October 2019
Temperature: 11.0°C (52°F)
Dewpoint: 4.0°C (39°F) [RH = 62%]
Pressure (altimeter): 29.88 inches Hg (1012.0 mb)
Winds: from the WSW (240 degrees) at 12 MPH (10 knots; 5.1 m/s)
Visibility: 6 or more miles (10+ km)
Ceiling: at least 12,000 feet AGL
Clouds: few clouds at 2000 feet AGL
Weather: no significant weather observed at this time

METAR text: EFHK 231120Z 24010KT 9999 FEW020 11/04 Q1012 NOSIG
Conditions at: EFHK (HELSINKI/VANTAA , FI) observed 1120 UTC 23 October 2019
Temperature: 11.0°C (52°F)
Dewpoint: 4.0°C (39°F) [RH = 62%]
Pressure (altimeter): 29.88 inches Hg (1012.0 mb)
Winds: from the WSW (240 degrees) at 12 MPH (10 knots; 5.1 m/s)
Visibility: 6 or more miles (10+ km)
Ceiling: at least 12,000 feet AGL
Clouds: few clouds at 2000 feet AGL
Weather: no significant weather observed at this time

METAR text: EFHK 231050Z 25009KT 220V280 CAVOK 11/04 Q1012 NOSIG
Conditions at: EFHK (HELSINKI/VANTAA , FI) observed 1050 UTC 23 October 2019
Temperature: 11.0°C (52°F)
Dewpoint: 4.0°C (39°F) [RH = 62%]
Pressure (altimeter): 29.88 inches Hg (1012.0 mb)
Winds: from the WSW (250 degrees) at 10 MPH (9 knots; 4.6 m/s)
Visibility: 6 or more miles (10+ km)
Ceiling: ceiling and visibility are OK
Clouds: unknown
Weather: no significant weather observed at this time

METAR text: EFHK 231020Z 26008KT CAVOK 11/04 Q1012 NOSIG
Conditions at: EFHK (HELSINKI/VANTAA , FI) observed 1020 UTC 23 October 2019
Temperature: 11.0°C (52°F)
Dewpoint: 4.0°C (39°F) [RH = 62%]
Pressure (altimeter): 29.88 inches Hg (1012.0 mb)
Winds: from the W (260 degrees) at 9 MPH (8 knots; 4.1 m/s)
Visibility: 6 or more miles (10+ km)
Ceiling: ceiling and visibility are OK
Clouds: unknown
Weather: no significant weather observed at this time

METAR text: EFHK 230950Z 27008KT CAVOK 10/04 Q1011 NOSIG
Conditions at: EFHK (HELSINKI/VANTAA , FI) observed 0950 UTC 23 October 2019
Temperature: 10.0°C (50°F)
Dewpoint: 4.0°C (39°F) [RH = 66%]
Pressure (altimeter): 29.85 inches Hg (1011.0 mb)
Winds: from the W (270 degrees) at 9 MPH (8 knots; 4.1 m/s)
Visibility: 6 or more miles (10+ km)
Ceiling: ceiling and visibility are OK
Clouds: unknown
Weather: no significant weather observed at this time

METAR text: EFHK 230920Z 26008KT 9999 FEW013 10/05 Q1011 NOSIG
Conditions at: EFHK (HELSINKI/VANTAA , FI) observed 0920 UTC 23 October 2019
Temperature: 10.0°C (50°F)
Dewpoint: 5.0°C (41°F) [RH = 71%]
Pressure (altimeter): 29.85 inches Hg (1011.0 mb)
Winds: from the W (260 degrees) at 9 MPH (8 knots; 4.1 m/s)
Visibility: 6 or more miles (10+ km)
Ceiling: at least 12,000 feet AGL
Clouds: few clouds at 1300 feet AGL
Weather: no significant weather observed at this time

METAR text: EFHK 230850Z 27009KT 240V300 9999 FEW013 09/06 Q1011 NOSIG
Conditions at: EFHK (HELSINKI/VANTAA , FI) observed 0850 UTC 23 October 2019
Temperature: 9.0°C (48°F)
Dewpoint: 6.0°C (43°F) [RH = 81%]
Pressure (altimeter): 29.85 inches Hg (1011.0 mb)
Winds: from the W (270 degrees) at 10 MPH (9 knots; 4.6 m/s)
Visibility: 6 or more miles (10+ km)
Ceiling: at least 12,000 feet AGL
Clouds: few clouds at 1300 feet AGL
Weather: no significant weather observed at this time

METAR text: EFHK 230820Z 26010KT 9999 FEW012 09/06 Q1011 NOSIG
Conditions at: EFHK (HELSINKI/VANTAA , FI) observed 0820 UTC 23 October 2019
Temperature: 9.0°C (48°F)
Dewpoint: 6.0°C (43°F) [RH = 81%]
Pressure (altimeter): 29.85 inches Hg (1011.0 mb)
Winds: from the W (260 degrees) at 12 MPH (10 knots; 5.1 m/s)
Visibility: 6 or more miles (10+ km)
Ceiling: at least 12,000 feet AGL
Clouds: few clouds at 1200 feet AGL
Weather: no significant weather observed at this time

METAR text: EFHK 230750Z 26009KT 9999 FEW010 09/06 Q1011 NOSIG
Conditions at: EFHK (HELSINKI/VANTAA , FI) observed 0750 UTC 23 October 2019
Temperature: 9.0°C (48°F)
Dewpoint: 6.0°C (43°F) [RH = 81%]
Pressure (altimeter): 29.85 inches Hg (1011.0 mb)
Winds: from the W (260 degrees) at 10 MPH (9 knots; 4.6 m/s)
Visibility: 6 or more miles (10+ km)
Ceiling: at least 12,000 feet AGL
Clouds: few clouds at 1000 feet AGL
Weather: no significant weather observed at this time

METAR text: EFHK 230720Z 25010KT 9999 FEW010 08/06 Q1010 NOSIG
Conditions at: EFHK (HELSINKI/VANTAA , FI) observed 0720 UTC 23 October 2019
Temperature: 8.0°C (46°F)
Dewpoint: 6.0°C (43°F) [RH = 87%]
Pressure (altimeter): 29.82 inches Hg (1010.0 mb)
Winds: from the WSW (250 degrees) at 12 MPH (10 knots; 5.1 m/s)
Visibility: 6 or more miles (10+ km)
Ceiling: at least 12,000 feet AGL
Clouds: few clouds at 1000 feet AGL
Weather: no significant weather observed at this time

METAR text: EFHK 230650Z 23007KT 9999 FEW012 07/06 Q1010 NOSIG
Conditions at: EFHK (HELSINKI/VANTAA , FI) observed 0650 UTC 23 October 2019
Temperature: 7.0°C (45°F)
Dewpoint: 6.0°C (43°F) [RH = 93%]
Pressure (altimeter): 29.82 inches Hg (1010.0 mb)
Winds: from the SW (230 degrees) at 8 MPH (7 knots; 3.6 m/s)
Visibility: 6 or more miles (10+ km)
Ceiling: at least 12,000 feet AGL
Clouds: few clouds at 1200 feet AGL
Weather: no significant weather observed at this time

METAR text: EFHK 230620Z 23006KT CAVOK 06/06 Q1010 NOSIG
Conditions at: EFHK (HELSINKI/VANTAA , FI) observed 0620 UTC 23 October 2019
Temperature: 6.0°C (43°F)
Dewpoint: 6.0°C (43°F) [RH = 100%]
Pressure (altimeter): 29.82 inches Hg (1010.0 mb)
Winds: from the SW (230 degrees) at 7 MPH (6 knots; 3.1 m/s)
Visibility: 6 or more miles (10+ km)
Ceiling: ceiling and visibility are OK
Clouds: unknown
Weather: no significant weather observed at this time

METAR text: EFHK 230550Z 24006KT CAVOK 06/05 Q1009 NOSIG
Conditions at: EFHK (HELSINKI/VANTAA , FI) observed 0550 UTC 23 October 2019
Temperature: 6.0°C (43°F)
Dewpoint: 5.0°C (41°F) [RH = 93%]
Pressure (altimeter): 29.79 inches Hg (1009.0 mb)
Winds: from the WSW (240 degrees) at 7 MPH (6 knots; 3.1 m/s)
Visibility: 6 or more miles (10+ km)
Ceiling: ceiling and visibility are OK
Clouds: unknown
Weather: no significant weather observed at this time

METAR text: EFHK 230520Z 24005KT CAVOK 06/05 Q1009 NOSIG
Conditions at: EFHK (HELSINKI/VANTAA , FI) observed 0520 UTC 23 October 2019
Temperature: 6.0°C (43°F)
Dewpoint: 5.0°C (41°F) [RH = 93%]
Pressure (altimeter): 29.79 inches Hg (1009.0 mb)
Winds: from the WSW (240 degrees) at 6 MPH (5 knots; 2.6 m/s)
Visibility: 6 or more miles (10+ km)
Ceiling: ceiling and visibility are OK
Clouds: unknown
Weather: no significant weather observed at this time

METAR text: EFHK 230450Z 24007KT CAVOK 06/05 Q1009 NOSIG
Conditions at: EFHK (HELSINKI/VANTAA , FI) observed 0450 UTC 23 October 2019
Temperature: 6.0°C (43°F)
Dewpoint: 5.0°C (41°F) [RH = 93%]
Pressure (altimeter): 29.79 inches Hg (1009.0 mb)
Winds: from the WSW (240 degrees) at 8 MPH (7 knots; 3.6 m/s)
Visibility: 6 or more miles (10+ km)
Ceiling: ceiling and visibility are OK
Clouds: unknown
Weather: no significant weather observed at this time

METAR text: EFHK 230420Z 24007KT CAVOK 07/05 Q1008 NOSIG
Conditions at: EFHK (HELSINKI/VANTAA , FI) observed 0420 UTC 23 October 2019
Temperature: 7.0°C (45°F)
Dewpoint: 5.0°C (41°F) [RH = 87%]
Pressure (altimeter): 29.76 inches Hg (1008.0 mb)
Winds: from the WSW (240 degrees) at 8 MPH (7 knots; 3.6 m/s)
Visibility: 6 or more miles (10+ km)
Ceiling: ceiling and visibility are OK
Clouds: unknown
Weather: no significant weather observed at this time

METAR text: EFHK 230350Z 23007KT CAVOK 07/06 Q1008 NOSIG
Conditions at: EFHK (HELSINKI/VANTAA , FI) observed 0350 UTC 23 October 2019
Temperature: 7.0°C (45°F)
Dewpoint: 6.0°C (43°F) [RH = 93%]
Pressure (altimeter): 29.76 inches Hg (1008.0 mb)
Winds: from the SW (230 degrees) at 8 MPH (7 knots; 3.6 m/s)
Visibility: 6 or more miles (10+ km)
Ceiling: ceiling and visibility are OK
Clouds: unknown
Weather: no significant weather observed at this time

METAR text: EFHK 230320Z 25008KT 9999 FEW017 08/06 Q1008 NOSIG
Conditions at: EFHK (HELSINKI/VANTAA , FI) observed 0320 UTC 23 October 2019
Temperature: 8.0°C (46°F)
Dewpoint: 6.0°C (43°F) [RH = 87%]
Pressure (altimeter): 29.76 inches Hg (1008.0 mb)
Winds: from the WSW (250 degrees) at 9 MPH (8 knots; 4.1 m/s)
Visibility: 6 or more miles (10+ km)
Ceiling: at least 12,000 feet AGL
Clouds: few clouds at 1700 feet AGL
Weather: no significant weather observed at this time

METAR text: EFHK 230250Z 24007KT 9999 FEW018 08/06 Q1008 NOSIG
Conditions at: EFHK (HELSINKI/VANTAA , FI) observed 0250 UTC 23 October 2019
Temperature: 8.0°C (46°F)
Dewpoint: 6.0°C (43°F) [RH = 87%]
Pressure (altimeter): 29.76 inches Hg (1008.0 mb)
Winds: from the WSW (240 degrees) at 8 MPH (7 knots; 3.6 m/s)
Visibility: 6 or more miles (10+ km)
Ceiling: at least 12,000 feet AGL
Clouds: few clouds at 1800 feet AGL
Weather: no significant weather observed at this time

METAR text: EFHK 230220Z 24007KT CAVOK 08/06 Q1008 NOSIG
Conditions at: EFHK (HELSINKI/VANTAA , FI) observed 0220 UTC 23 October 2019
Temperature: 8.0°C (46°F)
Dewpoint: 6.0°C (43°F) [RH = 87%]
Pressure (altimeter): 29.76 inches Hg (1008.0 mb)
Winds: from the WSW (240 degrees) at 8 MPH (7 knots; 3.6 m/s)
Visibility: 6 or more miles (10+ km)
Ceiling: ceiling and visibility are OK
Clouds: unknown
Weather: no significant weather observed at this time

METAR text: EFHK 230150Z 24008KT CAVOK 08/06 Q1007 NOSIG
Conditions at: EFHK (HELSINKI/VANTAA , FI) observed 0150 UTC 23 October 2019
Temperature: 8.0°C (46°F)
Dewpoint: 6.0°C (43°F) [RH = 87%]
Pressure (altimeter): 29.73 inches Hg (1007.0 mb)
Winds: from the WSW (240 degrees) at 9 MPH (8 knots; 4.1 m/s)
Visibility: 6 or more miles (10+ km)
Ceiling: ceiling and visibility are OK
Clouds: unknown
Weather: no significant weather observed at this time

METAR text: EFHK 230120Z 24009KT 9999 FEW020 08/06 Q1007 NOSIG
Conditions at: EFHK (HELSINKI/VANTAA , FI) observed 0120 UTC 23 October 2019
Temperature: 8.0°C (46°F)
Dewpoint: 6.0°C (43°F) [RH = 87%]
Pressure (altimeter): 29.73 inches Hg (1007.0 mb)
Winds: from the WSW (240 degrees) at 10 MPH (9 knots; 4.6 m/s)
Visibility: 6 or more miles (10+ km)
Ceiling: at least 12,000 feet AGL
Clouds: few clouds at 2000 feet AGL
Weather: no significant weather observed at this time

METAR text: EFHK 230050Z 25009KT 9999 FEW020 08/06 Q1007 NOSIG
Conditions at: EFHK (HELSINKI/VANTAA , FI) observed 0050 UTC 23 October 2019
Temperature: 8.0°C (46°F)
Dewpoint: 6.0°C (43°F) [RH = 87%]
Pressure (altimeter): 29.73 inches Hg (1007.0 mb)
Winds: from the WSW (250 degrees) at 10 MPH (9 knots; 4.6 m/s)
Visibility: 6 or more miles (10+ km)
Ceiling: at least 12,000 feet AGL
Clouds: few clouds at 2000 feet AGL
Weather: no significant weather observed at this time

METAR text: EFHK 230020Z 24010KT 9999 FEW019 08/06 Q1007 NOSIG
Conditions at: EFHK (HELSINKI/VANTAA , FI) observed 0020 UTC 23 October 2019
Temperature: 8.0°C (46°F)
Dewpoint: 6.0°C (43°F) [RH = 87%]
Pressure (altimeter): 29.73 inches Hg (1007.0 mb)
Winds: from the WSW (240 degrees) at 12 MPH (10 knots; 5.1 m/s)
Visibility: 6 or more miles (10+ km)
Ceiling: at least 12,000 feet AGL
Clouds: few clouds at 1900 feet AGL
Weather: no significant weather observed at this time

METAR text: EFHK 222350Z 24010KT CAVOK 08/06 Q1007 NOSIG
Conditions at: EFHK (HELSINKI/VANTAA , FI) observed 2350 UTC 22 October 2019
Temperature: 8.0°C (46°F)
Dewpoint: 6.0°C (43°F) [RH = 87%]
Pressure (altimeter): 29.73 inches Hg (1007.0 mb)
Winds: from the WSW (240 degrees) at 12 MPH (10 knots; 5.1 m/s)
Visibility: 6 or more miles (10+ km)
Ceiling: ceiling and visibility are OK
Clouds: unknown
Weather: no significant weather observed at this time

METAR text: EFHK 222320Z 23010KT CAVOK 08/06 Q1006 NOSIG
Conditions at: EFHK (HELSINKI/VANTAA , FI) observed 2320 UTC 22 October 2019
Temperature: 8.0°C (46°F)
Dewpoint: 6.0°C (43°F) [RH = 87%]
Pressure (altimeter): 29.70 inches Hg (1006.0 mb)
Winds: from the SW (230 degrees) at 12 MPH (10 knots; 5.1 m/s)
Visibility: 6 or more miles (10+ km)
Ceiling: ceiling and visibility are OK
Clouds: unknown
Weather: no significant weather observed at this time

METAR text: EFHK 222250Z 23009KT 9999 FEW020 09/06 Q1006 NOSIG
Conditions at: EFHK (HELSINKI/VANTAA , FI) observed 2250 UTC 22 October 2019
Temperature: 9.0°C (48°F)
Dewpoint: 6.0°C (43°F) [RH = 81%]
Pressure (altimeter): 29.70 inches Hg (1006.0 mb)
Winds: from the SW (230 degrees) at 10 MPH (9 knots; 4.6 m/s)
Visibility: 6 or more miles (10+ km)
Ceiling: at least 12,000 feet AGL
Clouds: few clouds at 2000 feet AGL
Weather: no significant weather observed at this time

METAR text: EFHK 222220Z 24011KT 9999 FEW020 09/06 Q1006 NOSIG
Conditions at: EFHK (HELSINKI/VANTAA , FI) observed 2220 UTC 22 October 2019
Temperature: 9.0°C (48°F)
Dewpoint: 6.0°C (43°F) [RH = 81%]
Pressure (altimeter): 29.70 inches Hg (1006.0 mb)
Winds: from the WSW (240 degrees) at 13 MPH (11 knots; 5.7 m/s)
Visibility: 6 or more miles (10+ km)
Ceiling: at least 12,000 feet AGL
Clouds: few clouds at 2000 feet AGL
Weather: no significant weather observed at this time

METAR text: EFHK 222150Z 24010KT 9999 SCT020 09/06 Q1006 NOSIG
Conditions at: EFHK (HELSINKI/VANTAA , FI) observed 2150 UTC 22 October 2019
Temperature: 9.0°C (48°F)
Dewpoint: 6.0°C (43°F) [RH = 81%]
Pressure (altimeter): 29.70 inches Hg (1006.0 mb)
Winds: from the WSW (240 degrees) at 12 MPH (10 knots; 5.1 m/s)
Visibility: 6 or more miles (10+ km)
Ceiling: at least 12,000 feet AGL
Clouds: scattered clouds at 2000 feet AGL
Weather: no significant weather observed at this time

METAR text: EFHK 222120Z 24013KT 9999 BKN025 10/07 Q1006 NOSIG
Conditions at: EFHK (HELSINKI/VANTAA , FI) observed 2120 UTC 22 October 2019
Temperature: 10.0°C (50°F)
Dewpoint: 7.0°C (45°F) [RH = 82%]
Pressure (altimeter): 29.70 inches Hg (1006.0 mb)
Winds: from the WSW (240 degrees) at 15 MPH (13 knots; 6.7 m/s)
Visibility: 6 or more miles (10+ km)
Ceiling: 2500 feet AGL
Clouds: broken clouds at 2500 feet AGL
Weather: no significant weather observed at this time

METAR text: EFHK 222050Z 24011KT 9999 BKN024 10/07 Q1006 NOSIG
Conditions at: EFHK (HELSINKI/VANTAA , FI) observed 2050 UTC 22 October 2019
Temperature: 10.0°C (50°F)
Dewpoint: 7.0°C (45°F) [RH = 82%]
Pressure (altimeter): 29.70 inches Hg (1006.0 mb)
Winds: from the WSW (240 degrees) at 13 MPH (11 knots; 5.7 m/s)
Visibility: 6 or more miles (10+ km)
Ceiling: 2400 feet AGL
Clouds: broken clouds at 2400 feet AGL
Weather: no significant weather observed at this time

METAR text: EFHK 222020Z 24013KT 9999 BKN024 10/07 Q1006 NOSIG
Conditions at: EFHK (HELSINKI/VANTAA , FI) observed 2020 UTC 22 October 2019
Temperature: 10.0°C (50°F)
Dewpoint: 7.0°C (45°F) [RH = 82%]
Pressure (altimeter): 29.70 inches Hg (1006.0 mb)
Winds: from the WSW (240 degrees) at 15 MPH (13 knots; 6.7 m/s)
Visibility: 6 or more miles (10+ km)
Ceiling: 2400 feet AGL
Clouds: broken clouds at 2400 feet AGL
Weather: no significant weather observed at this time

METAR text: EFHK 221950Z 24013KT 9999 BKN022 10/07 Q1006 NOSIG
Conditions at: EFHK (HELSINKI/VANTAA , FI) observed 1950 UTC 22 October 2019
Temperature: 10.0°C (50°F)
Dewpoint: 7.0°C (45°F) [RH = 82%]
Pressure (altimeter): 29.70 inches Hg (1006.0 mb)
Winds: from the WSW (240 degrees) at 15 MPH (13 knots; 6.7 m/s)
Visibility: 6 or more miles (10+ km)
Ceiling: 2200 feet AGL
Clouds: broken clouds at 2200 feet AGL
Weather: no significant weather observed at this time

METAR text: EFHK 221920Z 24014KT 210V270 9999 BKN020 10/07 Q1006 NOSIG
Conditions at: EFHK (HELSINKI/VANTAA , FI) observed 1920 UTC 22 October 2019
Temperature: 10.0°C (50°F)
Dewpoint: 7.0°C (45°F) [RH = 82%]
Pressure (altimeter): 29.70 inches Hg (1006.0 mb)
Winds: from the WSW (240 degrees) at 16 MPH (14 knots; 7.2 m/s)
Visibility: 6 or more miles (10+ km)
Ceiling: 2000 feet AGL
Clouds: broken clouds at 2000 feet AGL
Weather: no significant weather observed at this time

METAR text: EFHK 221850Z 24012KT 9999 SCT020 10/07 Q1006 NOSIG
Conditions at: EFHK (HELSINKI/VANTAA , FI) observed 1850 UTC 22 October 2019
Temperature: 10.0°C (50°F)
Dewpoint: 7.0°C (45°F) [RH = 82%]
Pressure (altimeter): 29.70 inches Hg (1006.0 mb)
Winds: from the WSW (240 degrees) at 14 MPH (12 knots; 6.2 m/s)
Visibility: 6 or more miles (10+ km)
Ceiling: at least 12,000 feet AGL
Clouds: scattered clouds at 2000 feet AGL
Weather: no significant weather observed at this time

METAR text: EFHK 221820Z 23013KT 9999 BKN020 10/07 Q1006 NOSIG
Conditions at: EFHK (HELSINKI/VANTAA , FI) observed 1820 UTC 22 October 2019
Temperature: 10.0°C (50°F)
Dewpoint: 7.0°C (45°F) [RH = 82%]
Pressure (altimeter): 29.70 inches Hg (1006.0 mb)
Winds: from the SW (230 degrees) at 15 MPH (13 knots; 6.7 m/s)
Visibility: 6 or more miles (10+ km)
Ceiling: 2000 feet AGL
Clouds: broken clouds at 2000 feet AGL
Weather: no significant weather observed at this time

METAR text: EFHK 221750Z 23012KT 9999 BKN022 09/06 Q1006 NOSIG
Conditions at: EFHK (HELSINKI/VANTAA , FI) observed 1750 UTC 22 October 2019
Temperature: 9.0°C (48°F)
Dewpoint: 6.0°C (43°F) [RH = 81%]
Pressure (altimeter): 29.70 inches Hg (1006.0 mb)
Winds: from the SW (230 degrees) at 14 MPH (12 knots; 6.2 m/s)
Visibility: 6 or more miles (10+ km)
Ceiling: 2200 feet AGL
Clouds: broken clouds at 2200 feet AGL
Weather: no significant weather observed at this time

METAR text: EFHK 221720Z 23013KT 9999 BKN025 10/06 Q1006 NOSIG
Conditions at: EFHK (HELSINKI/VANTAA , FI) observed 1720 UTC 22 October 2019
Temperature: 10.0°C (50°F)
Dewpoint: 6.0°C (43°F) [RH = 76%]
Pressure (altimeter): 29.70 inches Hg (1006.0 mb)
Winds: from the SW (230 degrees) at 15 MPH (13 knots; 6.7 m/s)
Visibility: 6 or more miles (10+ km)
Ceiling: 2500 feet AGL
Clouds: broken clouds at 2500 feet AGL
Weather: no significant weather observed at this time

METAR text: EFHK 221650Z 24015KT 9999 SCT025 10/06 Q1006 NOSIG
Conditions at: EFHK (HELSINKI/VANTAA , FI) observed 1650 UTC 22 October 2019
Temperature: 10.0°C (50°F)
Dewpoint: 6.0°C (43°F) [RH = 76%]
Pressure (altimeter): 29.70 inches Hg (1006.0 mb)
Winds: from the WSW (240 degrees) at 17 MPH (15 knots; 7.7 m/s)
Visibility: 6 or more miles (10+ km)
Ceiling: at least 12,000 feet AGL
Clouds: scattered clouds at 2500 feet AGL
Weather: no significant weather observed at this time

METAR text: EFHK 221620Z 24014G24KT 9999 BKN026 09/06 Q1006 NOSIG
Conditions at: EFHK (HELSINKI/VANTAA , FI) observed 1620 UTC 22 October 2019
Temperature: 9.0°C (48°F)
Dewpoint: 6.0°C (43°F) [RH = 81%]
Pressure (altimeter): 29.70 inches Hg (1006.0 mb)
Winds: from the WSW (240 degrees) at 16 MPH (14 knots; 7.2 m/s)
gusting to 28 MPH (24 knots; 12.3 m/s)
Visibility: 6 or more miles (10+ km)
Ceiling: 2600 feet AGL
Clouds: broken clouds at 2600 feet AGL
Weather: no significant weather observed at this time

METAR text: EFHK 221550Z 24014KT 9999 SCT025 10/05 Q1006 NOSIG
Conditions at: EFHK (HELSINKI/VANTAA , FI) observed 1550 UTC 22 October 2019
Temperature: 10.0°C (50°F)
Dewpoint: 5.0°C (41°F) [RH = 71%]
Pressure (altimeter): 29.70 inches Hg (1006.0 mb)
Winds: from the WSW (240 degrees) at 16 MPH (14 knots; 7.2 m/s)
Visibility: 6 or more miles (10+ km)
Ceiling: at least 12,000 feet AGL
Clouds: scattered clouds at 2500 feet AGL
Weather: no significant weather observed at this time

METAR text: EFHK 221520Z 23017G27KT 9999 SCT024 09/06 Q1006 NOSIG
Conditions at: EFHK (HELSINKI/VANTAA , FI) observed 1520 UTC 22 October 2019
Temperature: 9.0°C (48°F)
Dewpoint: 6.0°C (43°F) [RH = 81%]
Pressure (altimeter): 29.70 inches Hg (1006.0 mb)
Winds: from the SW (230 degrees) at 20 MPH (17 knots; 8.7 m/s)
gusting to 31 MPH (27 knots; 13.9 m/s)
Visibility: 6 or more miles (10+ km)
Ceiling: at least 12,000 feet AGL
Clouds: scattered clouds at 2400 feet AGL
Weather: no significant weather observed at this time

METAR text: EFHK 221450Z 24015KT 9999 BKN023 10/06 Q1006 NOSIG
Conditions at: EFHK (HELSINKI/VANTAA , FI) observed 1450 UTC 22 October 2019
Temperature: 10.0°C (50°F)
Dewpoint: 6.0°C (43°F) [RH = 76%]
Pressure (altimeter): 29.70 inches Hg (1006.0 mb)
Winds: from the WSW (240 degrees) at 17 MPH (15 knots; 7.7 m/s)
Visibility: 6 or more miles (10+ km)
Ceiling: 2300 feet AGL
Clouds: broken clouds at 2300 feet AGL
Weather: no significant weather observed at this time

METAR text: EFHK 221420Z 24021G31KT 9999 BKN023 10/06 Q1006 NOSIG
Conditions at: EFHK (HELSINKI/VANTAA , FI) observed 1420 UTC 22 October 2019
Temperature: 10.0°C (50°F)
Dewpoint: 6.0°C (43°F) [RH = 76%]
Pressure (altimeter): 29.70 inches Hg (1006.0 mb)
Winds: from the WSW (240 degrees) at 24 MPH (21 knots; 10.8 m/s)
gusting to 36 MPH (31 knots; 15.9 m/s)
Visibility: 6 or more miles (10+ km)
Ceiling: 2300 feet AGL
Clouds: broken clouds at 2300 feet AGL
Weather: no significant weather observed at this time

METAR text: EFHK 221350Z 23015KT 9999 BKN020 10/07 Q1006 NOSIG
Conditions at: EFHK (HELSINKI/VANTAA , FI) observed 1350 UTC 22 October 2019
Temperature: 10.0°C (50°F)
Dewpoint: 7.0°C (45°F) [RH = 82%]
Pressure (altimeter): 29.70 inches Hg (1006.0 mb)
Winds: from the SW (230 degrees) at 17 MPH (15 knots; 7.7 m/s)
Visibility: 6 or more miles (10+ km)
Ceiling: 2000 feet AGL
Clouds: broken clouds at 2000 feet AGL
Weather: no significant weather observed at this time

Forecast for: EFHK (HELSINKI/VANTAA , FI)
Text: TAF EFHK 232325Z 2400/2424 21007KT 9999 FEW012 BKN020
Forecast period: 0000 UTC 24 October 2019 to 0000 UTC 25 October 2019
Forecast type: FROM: standard forecast or significant change
Winds: from the SSW (210 degrees) at 8 MPH (7 knots; 3.6 m/s)
Visibility: 6 or more miles 10+ km)
Ceiling: 2000 feet AGL
Clouds: few clouds at 1200 feet AGL
broken clouds at 2000 feet AGL
Weather: no significant weather forecast for this period